sensor_id;sensor_type;location;lat;lon;timestamp;P1;durP1;ratioP1;P2;durP2;ratioP2
73170;SDS011;61381;50.118;19.962;2023-08-21T00:02:32;18.60;;;12.57;;
73170;SDS011;61381;50.118;19.962;2023-08-21T00:07:34;18.75;;;12.40;;
73170;SDS011;61381;50.118;19.962;2023-08-21T00:12:35;21.52;;;13.00;;
73170;SDS011;61381;50.118;19.962;2023-08-21T00:17:36;18.98;;;13.38;;
73170;SDS011;61381;50.118;19.962;2023-08-21T00:22:38;18.05;;;12.30;;
73170;SDS011;61381;50.118;19.962;2023-08-21T00:27:39;16.73;;;11.75;;
73170;SDS011;61381;50.118;19.962;2023-08-21T00:32:40;18.95;;;13.07;;
73170;SDS011;61381;50.118;19.962;2023-08-21T00:37:42;18.35;;;13.20;;
73170;SDS011;61381;50.118;19.962;2023-08-21T00:42:43;18.67;;;11.93;;
73170;SDS011;61381;50.118;19.962;2023-08-21T00:47:44;20.65;;;13.35;;
73170;SDS011;61381;50.118;19.962;2023-08-21T00:52:46;18.25;;;12.45;;
73170;SDS011;61381;50.118;19.962;2023-08-21T00:57:48;19.27;;;12.60;;
73170;SDS011;61381;50.118;19.962;2023-08-21T01:02:49;17.02;;;12.30;;
73170;SDS011;61381;50.118;19.962;2023-08-21T01:07:51;16.05;;;11.40;;
73170;SDS011;61381;50.118;19.962;2023-08-21T01:12:58;18.83;;;12.57;;
73170;SDS011;61381;50.118;19.962;2023-08-21T01:18:07;18.55;;;13.23;;
73170;SDS011;61381;50.118;19.962;2023-08-21T01:23:10;17.38;;;11.77;;
73170;SDS011;61381;50.118;19.962;2023-08-21T01:28:12;17.83;;;12.00;;
73170;SDS011;61381;50.118;19.962;2023-08-21T01:33:13;16.30;;;11.50;;
73170;SDS011;61381;50.118;19.962;2023-08-21T01:38:16;18.08;;;12.68;;
73170;SDS011;61381;50.118;19.962;2023-08-21T01:43:19;18.83;;;12.88;;
73170;SDS011;61381;50.118;19.962;2023-08-21T01:48:20;19.80;;;12.63;;
73170;SDS011;61381;50.118;19.962;2023-08-21T01:53:21;19.67;;;12.57;;
73170;SDS011;61381;50.118;19.962;2023-08-21T01:58:23;18.00;;;12.35;;
73170;SDS011;61381;50.118;19.962;2023-08-21T02:03:24;20.17;;;13.32;;
73170;SDS011;61381;50.118;19.962;2023-08-21T02:08:26;20.30;;;13.80;;
73170;SDS011;61381;50.118;19.962;2023-08-21T02:13:32;21.52;;;14.38;;
73170;SDS011;61381;50.118;19.962;2023-08-21T02:18:33;20.52;;;13.75;;
73170;SDS011;61381;50.118;19.962;2023-08-21T02:23:34;19.90;;;13.55;;
73170;SDS011;61381;50.118;19.962;2023-08-21T02:28:36;18.52;;;13.00;;
73170;SDS011;61381;50.118;19.962;2023-08-21T02:33:37;18.88;;;12.27;;
73170;SDS011;61381;50.118;19.962;2023-08-21T02:38:38;18.45;;;12.52;;
73170;SDS011;61381;50.118;19.962;2023-08-21T02:43:40;24.98;;;14.52;;
73170;SDS011;61381;50.118;19.962;2023-08-21T02:48:41;20.23;;;13.85;;
73170;SDS011;61381;50.118;19.962;2023-08-21T02:53:42;20.70;;;12.70;;
73170;SDS011;61381;50.118;19.962;2023-08-21T02:58:44;21.95;;;14.23;;
73170;SDS011;61381;50.118;19.962;2023-08-21T03:03:45;22.08;;;14.02;;
73170;SDS011;61381;50.118;19.962;2023-08-21T03:08:46;23.85;;;14.57;;
73170;SDS011;61381;50.118;19.962;2023-08-21T03:13:48;21.63;;;14.68;;
73170;SDS011;61381;50.118;19.962;2023-08-21T03:18:55;21.00;;;14.23;;
73170;SDS011;61381;50.118;19.962;2023-08-21T03:23:58;21.65;;;13.70;;
73170;SDS011;61381;50.118;19.962;2023-08-21T03:29:01;21.75;;;15.05;;
73170;SDS011;61381;50.118;19.962;2023-08-21T03:34:02;23.13;;;15.73;;
73170;SDS011;61381;50.118;19.962;2023-08-21T03:39:03;22.27;;;14.25;;
73170;SDS011;61381;50.118;19.962;2023-08-21T03:44:05;25.15;;;15.63;;
73170;SDS011;61381;50.118;19.962;2023-08-21T03:49:06;23.65;;;15.77;;
73170;SDS011;61381;50.118;19.962;2023-08-21T03:54:07;29.05;;;17.85;;
73170;SDS011;61381;50.118;19.962;2023-08-21T03:59:09;26.92;;;17.25;;
73170;SDS011;61381;50.118;19.962;2023-08-21T04:04:10;25.25;;;16.30;;
73170;SDS011;61381;50.118;19.962;2023-08-21T04:09:11;26.80;;;16.70;;
73170;SDS011;61381;50.118;19.962;2023-08-21T04:14:13;22.45;;;15.77;;
73170;SDS011;61381;50.118;19.962;2023-08-21T04:19:14;23.92;;;14.73;;
73170;SDS011;61381;50.118;19.962;2023-08-21T04:24:15;25.02;;;17.50;;
73170;SDS011;61381;50.118;19.962;2023-08-21T04:29:17;23.38;;;15.82;;
73170;SDS011;61381;50.118;19.962;2023-08-21T04:34:18;24.63;;;15.60;;
73170;SDS011;61381;50.118;19.962;2023-08-21T04:39:19;19.10;;;13.95;;
73170;SDS011;61381;50.118;19.962;2023-08-21T04:44:21;16.42;;;11.95;;
73170;SDS011;61381;50.118;19.962;2023-08-21T04:49:22;17.77;;;11.90;;
73170;SDS011;61381;50.118;19.962;2023-08-21T04:54:23;15.45;;;12.00;;
73170;SDS011;61381;50.118;19.962;2023-08-21T04:59:25;17.73;;;11.55;;
73170;SDS011;61381;50.118;19.962;2023-08-21T05:04:27;15.55;;;12.13;;
73170;SDS011;61381;50.118;19.962;2023-08-21T05:09:28;15.20;;;11.85;;
73170;SDS011;61381;50.118;19.962;2023-08-21T05:14:30;14.88;;;11.45;;
73170;SDS011;61381;50.118;19.962;2023-08-21T05:19:31;15.82;;;11.73;;
73170;SDS011;61381;50.118;19.962;2023-08-21T05:24:32;16.65;;;12.45;;
73170;SDS011;61381;50.118;19.962;2023-08-21T05:29:34;15.80;;;11.98;;
73170;SDS011;61381;50.118;19.962;2023-08-21T05:34:36;17.08;;;12.63;;
73170;SDS011;61381;50.118;19.962;2023-08-21T05:39:36;15.82;;;11.85;;
73170;SDS011;61381;50.118;19.962;2023-08-21T05:44:39;18.63;;;12.20;;
73170;SDS011;61381;50.118;19.962;2023-08-21T05:49:40;17.30;;;11.75;;
73170;SDS011;61381;50.118;19.962;2023-08-21T05:54:41;22.05;;;13.00;;
73170;SDS011;61381;50.118;19.962;2023-08-21T05:59:44;20.60;;;12.95;;
73170;SDS011;61381;50.118;19.962;2023-08-21T06:04:46;19.40;;;12.32;;
73170;SDS011;61381;50.118;19.962;2023-08-21T06:09:47;22.45;;;13.25;;
73170;SDS011;61381;50.118;19.962;2023-08-21T06:14:49;16.85;;;11.82;;
73170;SDS011;61381;50.118;19.962;2023-08-21T06:19:51;20.15;;;11.35;;
73170;SDS011;61381;50.118;19.962;2023-08-21T06:24:51;18.77;;;12.55;;
73170;SDS011;61381;50.118;19.962;2023-08-21T06:29:54;14.95;;;12.25;;
73170;SDS011;61381;50.118;19.962;2023-08-21T06:34:54;15.65;;;11.60;;
73170;SDS011;61381;50.118;19.962;2023-08-21T06:39:55;15.18;;;11.82;;
73170;SDS011;61381;50.118;19.962;2023-08-21T06:44:57;13.23;;;10.65;;
73170;SDS011;61381;50.118;19.962;2023-08-21T06:49:58;15.52;;;10.85;;
73170;SDS011;61381;50.118;19.962;2023-08-21T06:54:59;12.18;;;10.68;;
73170;SDS011;61381;50.118;19.962;2023-08-21T07:00:02;15.85;;;10.40;;
73170;SDS011;61381;50.118;19.962;2023-08-21T07:05:03;17.38;;;10.88;;
73170;SDS011;61381;50.118;19.962;2023-08-21T07:10:05;15.40;;;11.02;;
73170;SDS011;61381;50.118;19.962;2023-08-21T07:15:08;18.08;;;11.68;;
73170;SDS011;61381;50.118;19.962;2023-08-21T07:20:10;16.40;;;10.73;;
73170;SDS011;61381;50.118;19.962;2023-08-21T07:25:11;16.17;;;9.80;;
73170;SDS011;61381;50.118;19.962;2023-08-21T07:30:16;18.38;;;10.48;;
73170;SDS011;61381;50.118;19.962;2023-08-21T07:35:17;16.10;;;11.07;;
73170;SDS011;61381;50.118;19.962;2023-08-21T07:40:18;11.98;;;9.73;;
73170;SDS011;61381;50.118;19.962;2023-08-21T07:45:20;18.80;;;10.95;;
73170;SDS011;61381;50.118;19.962;2023-08-21T07:50:21;17.52;;;10.40;;
73170;SDS011;61381;50.118;19.962;2023-08-21T07:55:22;16.65;;;10.43;;
73170;SDS011;61381;50.118;19.962;2023-08-21T08:00:24;15.07;;;9.35;;
73170;SDS011;61381;50.118;19.962;2023-08-21T08:05:25;12.38;;;9.63;;
73170;SDS011;61381;50.118;19.962;2023-08-21T08:10:26;12.30;;;10.48;;
73170;SDS011;61381;50.118;19.962;2023-08-21T08:15:28;9.85;;;8.48;;
73170;SDS011;61381;50.118;19.962;2023-08-21T08:20:29;22.33;;;15.88;;
73170;SDS011;61381;50.118;19.962;2023-08-21T08:25:30;23.45;;;14.60;;
73170;SDS011;61381;50.118;19.962;2023-08-21T08:30:33;33.28;;;18.23;;
73170;SDS011;61381;50.118;19.962;2023-08-21T08:35:34;35.30;;;19.15;;
73170;SDS011;61381;50.118;19.962;2023-08-21T08:40:35;33.80;;;19.33;;
73170;SDS011;61381;50.118;19.962;2023-08-21T08:45:43;27.95;;;18.08;;
73170;SDS011;61381;50.118;19.962;2023-08-21T08:50:47;32.17;;;21.02;;
73170;SDS011;61381;50.118;19.962;2023-08-21T08:55:51;23.90;;;13.30;;
73170;SDS011;61381;50.118;19.962;2023-08-21T09:00:53;23.80;;;14.45;;
73170;SDS011;61381;50.118;19.962;2023-08-21T09:05:54;18.55;;;13.57;;
73170;SDS011;61381;50.118;19.962;2023-08-21T09:10:55;14.90;;;11.95;;
73170;SDS011;61381;50.118;19.962;2023-08-21T09:15:58;14.38;;;11.35;;
73170;SDS011;61381;50.118;19.962;2023-08-21T09:21:01;14.90;;;11.27;;
73170;SDS011;61381;50.118;19.962;2023-08-21T09:26:02;14.35;;;11.00;;
73170;SDS011;61381;50.118;19.962;2023-08-21T09:31:04;14.63;;;11.50;;
73170;SDS011;61381;50.118;19.962;2023-08-21T09:36:05;18.38;;;12.10;;
73170;SDS011;61381;50.118;19.962;2023-08-21T09:41:06;15.18;;;11.55;;
73170;SDS011;61381;50.118;19.962;2023-08-21T09:46:08;13.90;;;10.63;;
73170;SDS011;61381;50.118;19.962;2023-08-21T09:51:14;12.95;;;10.43;;
73170;SDS011;61381;50.118;19.962;2023-08-21T09:56:15;13.65;;;10.35;;
73170;SDS011;61381;50.118;19.962;2023-08-21T10:01:19;13.95;;;9.95;;
73170;SDS011;61381;50.118;19.962;2023-08-21T10:06:22;13.65;;;11.05;;
73170;SDS011;61381;50.118;19.962;2023-08-21T10:11:25;12.48;;;10.48;;
73170;SDS011;61381;50.118;19.962;2023-08-21T10:16:27;10.18;;;8.88;;
73170;SDS011;61381;50.118;19.962;2023-08-21T10:21:28;15.43;;;11.18;;
73170;SDS011;61381;50.118;19.962;2023-08-21T10:26:37;10.18;;;8.60;;
73170;SDS011;61381;50.118;19.962;2023-08-21T10:31:40;11.85;;;9.85;;
73170;SDS011;61381;50.118;19.962;2023-08-21T10:42:10;13.27;;;10.20;;
73170;SDS011;61381;50.118;19.962;2023-08-21T10:47:17;13.02;;;10.30;;
73170;SDS011;61381;50.118;19.962;2023-08-21T10:52:23;12.00;;;9.70;;
73170;SDS011;61381;50.118;19.962;2023-08-21T10:57:25;15.82;;;10.63;;
73170;SDS011;61381;50.118;19.962;2023-08-21T11:02:30;12.70;;;10.23;;
73170;SDS011;61381;50.118;19.962;2023-08-21T11:07:36;14.00;;;10.48;;
73170;SDS011;61381;50.118;19.962;2023-08-21T11:12:37;13.48;;;10.13;;
73170;SDS011;61381;50.118;19.962;2023-08-21T11:17:39;13.93;;;9.80;;
73170;SDS011;61381;50.118;19.962;2023-08-21T11:22:40;15.50;;;9.85;;
73170;SDS011;61381;50.118;19.962;2023-08-21T11:27:41;10.60;;;9.15;;
73170;SDS011;61381;50.118;19.962;2023-08-21T11:32:43;12.48;;;9.93;;
73170;SDS011;61381;50.118;19.962;2023-08-21T11:37:44;12.32;;;9.93;;
73170;SDS011;61381;50.118;19.962;2023-08-21T11:42:45;12.15;;;9.32;;
73170;SDS011;61381;50.118;19.962;2023-08-21T11:47:47;10.77;;;9.50;;
73170;SDS011;61381;50.118;19.962;2023-08-21T11:52:50;12.95;;;9.05;;
73170;SDS011;61381;50.118;19.962;2023-08-21T12:02:55;12.55;;;9.82;;
73170;SDS011;61381;50.118;19.962;2023-08-21T12:07:56;15.18;;;10.00;;
73170;SDS011;61381;50.118;19.962;2023-08-21T12:12:57;13.63;;;10.73;;
73170;SDS011;61381;50.118;19.962;2023-08-21T12:18:00;12.00;;;10.35;;
73170;SDS011;61381;50.118;19.962;2023-08-21T12:23:00;12.35;;;10.77;;
73170;SDS011;61381;50.118;19.962;2023-08-21T12:28:01;13.20;;;10.35;;
73170;SDS011;61381;50.118;19.962;2023-08-21T12:33:04;13.32;;;10.18;;
73170;SDS011;61381;50.118;19.962;2023-08-21T12:38:10;13.60;;;10.63;;
73170;SDS011;61381;50.118;19.962;2023-08-21T12:43:11;14.30;;;10.85;;
73170;SDS011;61381;50.118;19.962;2023-08-21T12:48:13;13.43;;;11.07;;
73170;SDS011;61381;50.118;19.962;2023-08-21T12:53:15;14.57;;;10.70;;
73170;SDS011;61381;50.118;19.962;2023-08-21T12:58:16;17.10;;;11.45;;
73170;SDS011;61381;50.118;19.962;2023-08-21T13:03:18;16.88;;;12.20;;
73170;SDS011;61381;50.118;19.962;2023-08-21T13:08:19;18.35;;;13.18;;
73170;SDS011;61381;50.118;19.962;2023-08-21T13:13:20;17.05;;;13.57;;
73170;SDS011;61381;50.118;19.962;2023-08-21T13:18:22;21.23;;;13.68;;
73170;SDS011;61381;50.118;19.962;2023-08-21T13:23:23;19.88;;;13.90;;
73170;SDS011;61381;50.118;19.962;2023-08-21T13:28:24;19.88;;;13.75;;
73170;SDS011;61381;50.118;19.962;2023-08-21T13:33:27;14.77;;;11.77;;
73170;SDS011;61381;50.118;19.962;2023-08-21T13:38:28;15.70;;;11.88;;
73170;SDS011;61381;50.118;19.962;2023-08-21T13:43:28;19.45;;;11.38;;
73170;SDS011;61381;50.118;19.962;2023-08-21T13:48:31;15.30;;;11.43;;
73170;SDS011;61381;50.118;19.962;2023-08-21T13:53:32;13.10;;;11.00;;
73170;SDS011;61381;50.118;19.962;2023-08-21T13:58:33;15.40;;;11.60;;
73170;SDS011;61381;50.118;19.962;2023-08-21T14:03:35;13.70;;;10.80;;
73170;SDS011;61381;50.118;19.962;2023-08-21T14:08:36;17.30;;;11.02;;
73170;SDS011;61381;50.118;19.962;2023-08-21T14:13:37;16.65;;;11.65;;
73170;SDS011;61381;50.118;19.962;2023-08-21T14:18:39;13.52;;;10.30;;
73170;SDS011;61381;50.118;19.962;2023-08-21T14:23:40;12.65;;;10.38;;
73170;SDS011;61381;50.118;19.962;2023-08-21T14:28:42;12.90;;;10.15;;
73170;SDS011;61381;50.118;19.962;2023-08-21T14:33:44;13.60;;;10.35;;
73170;SDS011;61381;50.118;19.962;2023-08-21T14:38:45;13.07;;;10.52;;
73170;SDS011;61381;50.118;19.962;2023-08-21T14:43:46;14.40;;;10.63;;
73170;SDS011;61381;50.118;19.962;2023-08-21T14:48:48;15.02;;;10.60;;
73170;SDS011;61381;50.118;19.962;2023-08-21T14:53:49;12.77;;;10.10;;
73170;SDS011;61381;50.118;19.962;2023-08-21T14:58:49;13.77;;;10.48;;
73170;SDS011;61381;50.118;19.962;2023-08-21T15:03:52;15.55;;;11.77;;
73170;SDS011;61381;50.118;19.962;2023-08-21T15:08:53;13.52;;;11.25;;
73170;SDS011;61381;50.118;19.962;2023-08-21T15:13:54;12.40;;;11.10;;
73170;SDS011;61381;50.118;19.962;2023-08-21T15:18:56;12.75;;;10.48;;
73170;SDS011;61381;50.118;19.962;2023-08-21T15:23:57;14.23;;;10.68;;
73170;SDS011;61381;50.118;19.962;2023-08-21T15:28:58;14.45;;;10.50;;
73170;SDS011;61381;50.118;19.962;2023-08-21T15:34:01;13.25;;;10.48;;
73170;SDS011;61381;50.118;19.962;2023-08-21T15:39:02;12.38;;;10.77;;
73170;SDS011;61381;50.118;19.962;2023-08-21T15:44:03;14.45;;;11.20;;
73170;SDS011;61381;50.118;19.962;2023-08-21T15:49:05;13.95;;;10.80;;
73170;SDS011;61381;50.118;19.962;2023-08-21T15:54:09;13.65;;;10.90;;
73170;SDS011;61381;50.118;19.962;2023-08-21T15:59:10;14.35;;;11.32;;
73170;SDS011;61381;50.118;19.962;2023-08-21T16:04:12;17.30;;;11.60;;
73170;SDS011;61381;50.118;19.962;2023-08-21T16:09:13;13.60;;;11.30;;
73170;SDS011;61381;50.118;19.962;2023-08-21T16:14:14;14.80;;;10.98;;
73170;SDS011;61381;50.118;19.962;2023-08-21T16:19:17;14.82;;;11.02;;
73170;SDS011;61381;50.118;19.962;2023-08-21T16:24:18;15.32;;;11.43;;
73170;SDS011;61381;50.118;19.962;2023-08-21T16:29:19;15.85;;;11.77;;
73170;SDS011;61381;50.118;19.962;2023-08-21T16:34:21;18.80;;;12.20;;
73170;SDS011;61381;50.118;19.962;2023-08-21T16:39:22;17.10;;;13.30;;
73170;SDS011;61381;50.118;19.962;2023-08-21T16:44:23;17.27;;;12.95;;
73170;SDS011;61381;50.118;19.962;2023-08-21T16:49:27;18.60;;;14.50;;
73170;SDS011;61381;50.118;19.962;2023-08-21T16:54:28;15.63;;;12.88;;
73170;SDS011;61381;50.118;19.962;2023-08-21T16:59:29;18.15;;;12.07;;
73170;SDS011;61381;50.118;19.962;2023-08-21T17:04:31;15.55;;;12.68;;
73170;SDS011;61381;50.118;19.962;2023-08-21T17:09:32;15.98;;;12.73;;
73170;SDS011;61381;50.118;19.962;2023-08-21T17:14:33;17.73;;;13.20;;
73170;SDS011;61381;50.118;19.962;2023-08-21T17:19:35;18.30;;;13.23;;
73170;SDS011;61381;50.118;19.962;2023-08-21T17:24:36;18.23;;;13.60;;
73170;SDS011;61381;50.118;19.962;2023-08-21T17:29:37;18.67;;;13.02;;
73170;SDS011;61381;50.118;19.962;2023-08-21T17:34:39;16.33;;;12.80;;
73170;SDS011;61381;50.118;19.962;2023-08-21T17:39:41;17.83;;;13.77;;
73170;SDS011;61381;50.118;19.962;2023-08-21T17:44:42;19.65;;;12.75;;
73170;SDS011;61381;50.118;19.962;2023-08-21T17:49:45;18.15;;;13.43;;
73170;SDS011;61381;50.118;19.962;2023-08-21T17:54:46;18.23;;;12.98;;
73170;SDS011;61381;50.118;19.962;2023-08-21T17:59:47;16.75;;;12.32;;
73170;SDS011;61381;50.118;19.962;2023-08-21T18:04:50;16.63;;;13.63;;
73170;SDS011;61381;50.118;19.962;2023-08-21T18:09:50;13.63;;;11.55;;
73170;SDS011;61381;50.118;19.962;2023-08-21T18:14:51;16.10;;;12.70;;
73170;SDS011;61381;50.118;19.962;2023-08-21T18:19:54;19.20;;;13.13;;
73170;SDS011;61381;50.118;19.962;2023-08-21T18:24:55;13.85;;;11.93;;
73170;SDS011;61381;50.118;19.962;2023-08-21T18:29:57;16.83;;;11.50;;
73170;SDS011;61381;50.118;19.962;2023-08-21T18:35:01;15.35;;;11.95;;
73170;SDS011;61381;50.118;19.962;2023-08-21T18:40:02;16.15;;;12.18;;
73170;SDS011;61381;50.118;19.962;2023-08-21T18:45:04;14.25;;;11.25;;
73170;SDS011;61381;50.118;19.962;2023-08-21T18:50:07;14.88;;;12.18;;
73170;SDS011;61381;50.118;19.962;2023-08-21T18:55:09;14.60;;;11.70;;
73170;SDS011;61381;50.118;19.962;2023-08-21T19:00:10;18.20;;;12.57;;
73170;SDS011;61381;50.118;19.962;2023-08-21T19:05:14;15.73;;;13.00;;
73170;SDS011;61381;50.118;19.962;2023-08-21T19:10:15;18.25;;;13.35;;
73170;SDS011;61381;50.118;19.962;2023-08-21T19:15:16;18.05;;;13.60;;
73170;SDS011;61381;50.118;19.962;2023-08-21T19:20:19;18.58;;;12.77;;
73170;SDS011;61381;50.118;19.962;2023-08-21T19:25:20;20.40;;;13.90;;
73170;SDS011;61381;50.118;19.962;2023-08-21T19:30:20;19.48;;;13.60;;
73170;SDS011;61381;50.118;19.962;2023-08-21T19:35:23;17.15;;;12.48;;
73170;SDS011;61381;50.118;19.962;2023-08-21T19:40:24;16.92;;;12.52;;
73170;SDS011;61381;50.118;19.962;2023-08-21T19:45:24;17.65;;;12.98;;
73170;SDS011;61381;50.118;19.962;2023-08-21T19:50:27;14.15;;;11.30;;
73170;SDS011;61381;50.118;19.962;2023-08-21T19:55:28;16.02;;;11.10;;
73170;SDS011;61381;50.118;19.962;2023-08-21T20:00:29;14.95;;;10.90;;
73170;SDS011;61381;50.118;19.962;2023-08-21T20:05:31;14.25;;;10.93;;
73170;SDS011;61381;50.118;19.962;2023-08-21T20:10:32;14.82;;;10.95;;
73170;SDS011;61381;50.118;19.962;2023-08-21T20:15:33;13.32;;;10.40;;
73170;SDS011;61381;50.118;19.962;2023-08-21T20:20:35;15.98;;;10.43;;
73170;SDS011;61381;50.118;19.962;2023-08-21T20:25:36;16.70;;;10.10;;
73170;SDS011;61381;50.118;19.962;2023-08-21T20:30:37;15.23;;;10.45;;
73170;SDS011;61381;50.118;19.962;2023-08-21T20:35:39;18.98;;;11.98;;
73170;SDS011;61381;50.118;19.962;2023-08-21T20:40:40;25.02;;;14.30;;
73170;SDS011;61381;50.118;19.962;2023-08-21T20:45:41;47.92;;;24.10;;
73170;SDS011;61381;50.118;19.962;2023-08-21T20:50:43;36.35;;;21.08;;
73170;SDS011;61381;50.118;19.962;2023-08-21T20:55:45;20.52;;;13.40;;
73170;SDS011;61381;50.118;19.962;2023-08-21T21:00:45;18.15;;;12.77;;
73170;SDS011;61381;50.118;19.962;2023-08-21T21:05:48;18.27;;;12.63;;
73170;SDS011;61381;50.118;19.962;2023-08-21T21:10:49;18.63;;;11.90;;
73170;SDS011;61381;50.118;19.962;2023-08-21T21:15:50;17.65;;;11.13;;
73170;SDS011;61381;50.118;19.962;2023-08-21T21:20:52;15.93;;;11.27;;
73170;SDS011;61381;50.118;19.962;2023-08-21T21:25:58;17.15;;;10.07;;
73170;SDS011;61381;50.118;19.962;2023-08-21T21:30:59;17.25;;;11.60;;
73170;SDS011;61381;50.118;19.962;2023-08-21T21:36:01;17.25;;;11.45;;
73170;SDS011;61381;50.118;19.962;2023-08-21T21:41:02;16.52;;;11.60;;
73170;SDS011;61381;50.118;19.962;2023-08-21T21:46:03;16.85;;;11.45;;
73170;SDS011;61381;50.118;19.962;2023-08-21T21:51:09;19.88;;;13.40;;
73170;SDS011;61381;50.118;19.962;2023-08-21T21:56:10;18.75;;;13.13;;
73170;SDS011;61381;50.118;19.962;2023-08-21T22:01:11;18.17;;;13.48;;
73170;SDS011;61381;50.118;19.962;2023-08-21T22:06:13;21.55;;;13.85;;
73170;SDS011;61381;50.118;19.962;2023-08-21T22:11:14;20.50;;;13.32;;
73170;SDS011;61381;50.118;19.962;2023-08-21T22:16:15;20.17;;;13.20;;
73170;SDS011;61381;50.118;19.962;2023-08-21T22:21:18;18.92;;;12.02;;
73170;SDS011;61381;50.118;19.962;2023-08-21T22:26:18;19.40;;;13.07;;
73170;SDS011;61381;50.118;19.962;2023-08-21T22:31:19;18.00;;;11.63;;
73170;SDS011;61381;50.118;19.962;2023-08-21T22:36:22;18.45;;;12.85;;
73170;SDS011;61381;50.118;19.962;2023-08-21T22:41:22;15.30;;;11.57;;
73170;SDS011;61381;50.118;19.962;2023-08-21T22:46:23;15.52;;;11.38;;
73170;SDS011;61381;50.118;19.962;2023-08-21T22:51:25;15.25;;;11.48;;
73170;SDS011;61381;50.118;19.962;2023-08-21T22:56:26;16.45;;;11.32;;
73170;SDS011;61381;50.118;19.962;2023-08-21T23:01:27;16.02;;;10.63;;
73170;SDS011;61381;50.118;19.962;2023-08-21T23:06:29;14.30;;;10.50;;
73170;SDS011;61381;50.118;19.962;2023-08-21T23:11:30;16.42;;;10.32;;
73170;SDS011;61381;50.118;19.962;2023-08-21T23:16:31;16.45;;;10.55;;
73170;SDS011;61381;50.118;19.962;2023-08-21T23:21:33;13.15;;;10.30;;
73170;SDS011;61381;50.118;19.962;2023-08-21T23:26:35;12.18;;;9.02;;
73170;SDS011;61381;50.118;19.962;2023-08-21T23:31:36;15.27;;;9.95;;
73170;SDS011;61381;50.118;19.962;2023-08-21T23:36:38;13.13;;;9.50;;
73170;SDS011;61381;50.118;19.962;2023-08-21T23:41:39;14.32;;;10.00;;
73170;SDS011;61381;50.118;19.962;2023-08-21T23:46:40;14.32;;;9.40;;
73170;SDS011;61381;50.118;19.962;2023-08-21T23:51:42;13.68;;;9.25;;
73170;SDS011;61381;50.118;19.962;2023-08-21T23:56:43;13.15;;;8.93;;
